Airport View

Enter AWOS ICAO identifier for current METAR.

ex. KFNL

KUVA 212355Z AUTO 12013G20KT 10SM SCT060 33/20 A2992 RMK AO2 T03260197 10359 20319

22 Sep 2019 00:14

Frequency: 124.175

Phone: 830-278-8862

Other Area AWOS: KHDO - KDLF - KCZT - KCVB

TAF KDLF 202240Z 2022/2124 15015G25KT 9999 VCSH SCT050 QNH2981INS BECMG 2102/2103 14012KT 9999 NSW SCT065 QNH2987INS BECMG 2108/2109 13010G15KT 9999 BKN020 QNH2993INS BECMG 2111/2112 13012G18KT 9999 BKN015 QNH2996INS TX35/2022Z TN24/2112Z LAST NO AMDS AFT 2022 NEXT 2310